sensor_id;sensor_type;location;lat;lon;timestamp;pressure;altitude;pressure_sealevel;temperature;humidity
12471;BME280;36499;46.484;13.832;2023-04-07T00:00:58;98165.69;;;6.18;57.25
12471;BME280;36499;46.484;13.832;2023-04-07T00:03:26;98165.69;;;6.18;57.00
12471;BME280;36499;46.484;13.832;2023-04-07T00:05:53;98163.13;;;6.17;57.06
12471;BME280;36499;46.484;13.832;2023-04-07T00:08:20;98163.13;;;6.17;56.83
12471;BME280;36499;46.484;13.832;2023-04-07T00:10:47;98166.69;;;6.14;57.93
12471;BME280;36499;46.484;13.832;2023-04-07T00:13:14;98168.44;;;6.14;57.16
12471;BME280;36499;46.484;13.832;2023-04-07T00:15:42;98166.03;;;6.09;57.48
12471;BME280;36499;46.484;13.832;2023-04-07T00:18:10;98166.09;;;6.08;57.47
12471;BME280;36499;46.484;13.832;2023-04-07T00:20:37;98170.50;;;6.06;57.40
12471;BME280;36499;46.484;13.832;2023-04-07T00:23:05;98162.78;;;6.04;56.72
12471;BME280;36499;46.484;13.832;2023-04-07T00:25:32;98162.06;;;6.01;57.39
12471;BME280;36499;46.484;13.832;2023-04-07T00:27:59;98157.97;;;5.95;57.65
12471;BME280;36499;46.484;13.832;2023-04-07T00:30:26;98163.25;;;5.92;57.56
12471;BME280;36499;46.484;13.832;2023-04-07T00:32:53;98157.44;;;5.86;57.62
12471;BME280;36499;46.484;13.832;2023-04-07T00:35:23;98157.53;;;5.82;58.16
12471;BME280;36499;46.484;13.832;2023-04-07T00:37:50;98149.00;;;5.80;57.61
12471;BME280;36499;46.484;13.832;2023-04-07T00:40:17;98161.16;;;5.78;56.90
12471;BME280;36499;46.484;13.832;2023-04-07T00:42:44;98148.31;;;5.75;57.11
12471;BME280;36499;46.484;13.832;2023-04-07T00:45:11;98157.09;;;5.71;56.82
12471;BME280;36499;46.484;13.832;2023-04-07T00:47:39;98152.94;;;5.67;56.34
12471;BME280;36499;46.484;13.832;2023-04-07T00:50:07;98156.63;;;5.62;56.28
12471;BME280;36499;46.484;13.832;2023-04-07T00:52:36;98154.97;;;5.59;56.68
12471;BME280;36499;46.484;13.832;2023-04-07T00:55:05;98159.63;;;5.51;57.05
12471;BME280;36499;46.484;13.832;2023-04-07T00:57:32;98164.84;;;5.50;56.92
12471;BME280;36499;46.484;13.832;2023-04-07T00:59:59;98160.56;;;5.49;57.10
12471;BME280;36499;46.484;13.832;2023-04-07T01:02:35;98154.88;;;5.39;56.52
12471;BME280;36499;46.484;13.832;2023-04-07T01:05:13;98158.38;;;5.38;56.89
12471;BME280;36499;46.484;13.832;2023-04-07T01:07:54;98155.94;;;5.33;56.74
12471;BME280;36499;46.484;13.832;2023-04-07T01:10:32;98152.50;;;5.33;57.52
12471;BME280;36499;46.484;13.832;2023-04-07T01:13:08;98157.69;;;5.33;56.79
12471;BME280;36499;46.484;13.832;2023-04-07T01:15:39;98157.69;;;5.33;57.51
12471;BME280;36499;46.484;13.832;2023-04-07T01:18:12;98156.06;;;5.30;57.00
12471;BME280;36499;46.484;13.832;2023-04-07T01:20:44;98155.38;;;5.25;57.19
12471;BME280;36499;46.484;13.832;2023-04-07T01:23:26;98148.63;;;5.21;58.07
12471;BME280;36499;46.484;13.832;2023-04-07T01:26:19;98147.88;;;5.18;58.72
12471;BME280;36499;46.484;13.832;2023-04-07T01:29:10;98148.84;;;5.15;58.25
12471;BME280;36499;46.484;13.832;2023-04-07T01:31:42;98151.59;;;5.11;58.83
12471;BME280;36499;46.484;13.832;2023-04-07T01:34:12;98152.44;;;5.11;57.95
12471;BME280;36499;46.484;13.832;2023-04-07T01:36:41;98147.38;;;5.08;58.98
12471;BME280;36499;46.484;13.832;2023-04-07T01:39:10;98150.84;;;5.07;57.96
12471;BME280;36499;46.484;13.832;2023-04-07T01:41:38;98138.88;;;5.05;58.81
12471;BME280;36499;46.484;13.832;2023-04-07T01:44:08;98142.41;;;5.02;58.35
12471;BME280;36499;46.484;13.832;2023-04-07T01:46:36;98145.91;;;5.01;57.71
12471;BME280;36499;46.484;13.832;2023-04-07T01:49:05;98143.47;;;4.97;58.00
12471;BME280;36499;46.484;13.832;2023-04-07T01:51:34;98146.06;;;4.97;58.20
12471;BME280;36499;46.484;13.832;2023-04-07T01:54:03;98138.47;;;4.92;58.77
12471;BME280;36499;46.484;13.832;2023-04-07T01:56:30;98138.63;;;4.88;58.26
12471;BME280;36499;46.484;13.832;2023-04-07T01:58:58;98145.59;;;4.86;59.19
12471;BME280;36499;46.484;13.832;2023-04-07T02:01:25;98144.00;;;4.81;58.44
12471;BME280;36499;46.484;13.832;2023-04-07T02:03:55;98145.75;;;4.81;59.64
12471;BME280;36499;46.484;13.832;2023-04-07T02:06:34;98146.72;;;4.78;59.48
12471;BME280;36499;46.484;13.832;2023-04-07T02:09:07;98141.53;;;4.78;59.63
12471;BME280;36499;46.484;13.832;2023-04-07T02:11:37;98144.13;;;4.78;60.25
12471;BME280;36499;46.484;13.832;2023-04-07T02:14:08;98144.13;;;4.78;59.56
12471;BME280;36499;46.484;13.832;2023-04-07T02:16:36;98150.28;;;4.74;58.70
12471;BME280;36499;46.484;13.832;2023-04-07T02:19:05;98145.28;;;4.70;59.65
12471;BME280;36499;46.484;13.832;2023-04-07T02:21:34;98144.53;;;4.66;59.25
12471;BME280;36499;46.484;13.832;2023-04-07T02:24:04;98146.41;;;4.61;59.63
12471;BME280;36499;46.484;13.832;2023-04-07T02:26:33;98146.50;;;4.60;60.38
12471;BME280;36499;46.484;13.832;2023-04-07T02:29:01;98153.28;;;4.62;60.35
12471;BME280;36499;46.484;13.832;2023-04-07T02:31:28;98151.59;;;4.61;60.16
12471;BME280;36499;46.484;13.832;2023-04-07T02:33:56;98155.88;;;4.62;60.43
12471;BME280;36499;46.484;13.832;2023-04-07T02:36:23;98153.31;;;4.61;60.75
12471;BME280;36499;46.484;13.832;2023-04-07T02:38:52;98153.50;;;4.56;61.92
12471;BME280;36499;46.484;13.832;2023-04-07T02:41:19;98143.31;;;4.52;61.38
12471;BME280;36499;46.484;13.832;2023-04-07T02:43:47;98148.41;;;4.53;61.42
12471;BME280;36499;46.484;13.832;2023-04-07T02:46:14;98150.31;;;4.48;61.18
12471;BME280;36499;46.484;13.832;2023-04-07T02:48:41;98143.50;;;4.46;60.19
12471;BME280;36499;46.484;13.832;2023-04-07T02:51:08;98140.16;;;4.42;60.91
12471;BME280;36499;46.484;13.832;2023-04-07T02:53:35;98142.00;;;4.39;61.34
12471;BME280;36499;46.484;13.832;2023-04-07T02:56:04;98145.59;;;4.34;60.81
12471;BME280;36499;46.484;13.832;2023-04-07T02:58:31;98144.06;;;4.29;60.35
12471;BME280;36499;46.484;13.832;2023-04-07T03:00:58;98137.44;;;4.20;61.31
12471;BME280;36499;46.484;13.832;2023-04-07T03:03:26;98135.81;;;4.18;61.09
12471;BME280;36499;46.484;13.832;2023-04-07T03:05:53;98136.00;;;4.12;61.52
12471;BME280;36499;46.484;13.832;2023-04-07T03:08:20;98140.28;;;4.13;60.94
12471;BME280;36499;46.484;13.832;2023-04-07T03:10:47;98136.09;;;4.09;60.86
12471;BME280;36499;46.484;13.832;2023-04-07T03:13:16;98133.63;;;4.06;61.00
12471;BME280;36499;46.484;13.832;2023-04-07T03:15:44;98132.81;;;4.04;62.22
12471;BME280;36499;46.484;13.832;2023-04-07T03:18:12;98134.72;;;3.99;61.69
12471;BME280;36499;46.484;13.832;2023-04-07T03:20:39;98127.88;;;3.96;61.06
12471;BME280;36499;46.484;13.832;2023-04-07T03:23:07;98133.97;;;3.95;62.36
12471;BME280;36499;46.484;13.832;2023-04-07T03:25:34;98128.88;;;3.92;62.43
12471;BME280;36499;46.484;13.832;2023-04-07T03:28:02;98133.75;;;4.01;62.50
12471;BME280;36499;46.484;13.832;2023-04-07T03:30:30;98137.06;;;4.06;62.71
12471;BME280;36499;46.484;13.832;2023-04-07T03:32:57;98132.75;;;4.07;62.84
12471;BME280;36499;46.484;13.832;2023-04-07T03:35:25;98129.31;;;4.06;62.08
12471;BME280;36499;46.484;13.832;2023-04-07T03:37:52;98135.38;;;4.04;63.19
12471;BME280;36499;46.484;13.832;2023-04-07T03:40:19;98134.50;;;4.05;62.69
12471;BME280;36499;46.484;13.832;2023-04-07T03:42:47;98136.31;;;4.03;62.66
12471;BME280;36499;46.484;13.832;2023-04-07T03:45:14;98138.03;;;4.02;62.20
12471;BME280;36499;46.484;13.832;2023-04-07T03:47:43;98129.59;;;3.97;61.34
12471;BME280;36499;46.484;13.832;2023-04-07T03:50:10;98134.03;;;3.92;62.21
12471;BME280;36499;46.484;13.832;2023-04-07T03:52:37;98134.28;;;3.84;62.22
12471;BME280;36499;46.484;13.832;2023-04-07T03:55:06;98132.66;;;3.82;62.19
12471;BME280;36499;46.484;13.832;2023-04-07T03:57:34;98136.06;;;3.82;62.80
12471;BME280;36499;46.484;13.832;2023-04-07T04:00:01;98135.22;;;3.82;62.60
12471;BME280;36499;46.484;13.832;2023-04-07T04:02:28;98130.16;;;3.79;64.20
12471;BME280;36499;46.484;13.832;2023-04-07T04:04:57;98140.38;;;3.82;63.88
12471;BME280;36499;46.484;13.832;2023-04-07T04:07:24;98135.25;;;3.80;63.24
12471;BME280;36499;46.484;13.832;2023-04-07T04:09:51;98136.28;;;3.76;62.40
12471;BME280;36499;46.484;13.832;2023-04-07T04:12:19;98133.75;;;3.73;62.48
12471;BME280;36499;46.484;13.832;2023-04-07T04:14:46;98135.34;;;3.77;62.51
12471;BME280;36499;46.484;13.832;2023-04-07T04:17:13;98136.44;;;3.70;62.31
12471;BME280;36499;46.484;13.832;2023-04-07T04:19:40;98138.13;;;3.71;61.95
12471;BME280;36499;46.484;13.832;2023-04-07T04:22:09;98133.00;;;3.70;62.05
12471;BME280;36499;46.484;13.832;2023-04-07T04:24:36;98147.94;;;3.60;62.20
12471;BME280;36499;46.484;13.832;2023-04-07T04:27:03;98140.16;;;3.32;63.20
12471;BME280;36499;46.484;13.832;2023-04-07T04:29:30;98139.59;;;3.21;63.59
12471;BME280;36499;46.484;13.832;2023-04-07T04:31:58;98140.25;;;3.29;63.32
12471;BME280;36499;46.484;13.832;2023-04-07T04:34:25;98135.63;;;3.41;64.12
12471;BME280;36499;46.484;13.832;2023-04-07T04:36:52;98137.31;;;3.42;63.00
12471;BME280;36499;46.484;13.832;2023-04-07T04:39:20;98145.75;;;3.47;63.84
12471;BME280;36499;46.484;13.832;2023-04-07T04:41:48;98144.94;;;3.46;63.29
12471;BME280;36499;46.484;13.832;2023-04-07T04:44:15;98138.06;;;3.45;63.32
12471;BME280;36499;46.484;13.832;2023-04-07T04:46:42;98148.28;;;3.48;63.25
12471;BME280;36499;46.484;13.832;2023-04-07T04:49:09;98145.63;;;3.51;63.02
12471;BME280;36499;46.484;13.832;2023-04-07T04:51:36;98145.59;;;3.53;62.90
12471;BME280;36499;46.484;13.832;2023-04-07T04:54:04;98143.78;;;3.55;63.32
12471;BME280;36499;46.484;13.832;2023-04-07T04:56:33;98143.78;;;3.55;62.78
12471;BME280;36499;46.484;13.832;2023-04-07T04:59:00;98144.63;;;3.55;63.49
12471;BME280;36499;46.484;13.832;2023-04-07T05:01:27;98140.28;;;3.57;63.90
12471;BME280;36499;46.484;13.832;2023-04-07T05:03:54;98141.06;;;3.59;63.51
12471;BME280;36499;46.484;13.832;2023-04-07T05:06:21;98144.38;;;3.64;62.29
12471;BME280;36499;46.484;13.832;2023-04-07T05:08:49;98149.63;;;3.61;62.64
12471;BME280;36499;46.484;13.832;2023-04-07T05:11:16;98144.50;;;3.60;62.63
12471;BME280;36499;46.484;13.832;2023-04-07T05:13:44;98147.06;;;3.61;62.13
12471;BME280;36499;46.484;13.832;2023-04-07T05:16:11;98144.53;;;3.58;62.99
12471;BME280;36499;46.484;13.832;2023-04-07T05:18:39;98142.78;;;3.60;63.96
12471;BME280;36499;46.484;13.832;2023-04-07T05:21:06;98132.22;;;3.68;65.52
12471;BME280;36499;46.484;13.832;2023-04-07T05:23:34;98136.16;;;3.79;65.95
12471;BME280;36499;46.484;13.832;2023-04-07T05:26:01;98139.25;;;3.91;64.77
12471;BME280;36499;46.484;13.832;2023-04-07T05:28:28;98138.38;;;3.92;63.37
12471;BME280;36499;46.484;13.832;2023-04-07T05:30:57;98141.00;;;3.90;63.18
12471;BME280;36499;46.484;13.832;2023-04-07T05:33:26;98146.66;;;4.01;62.24
12471;BME280;36499;46.484;13.832;2023-04-07T05:35:53;98145.78;;;4.02;62.73
12471;BME280;36499;46.484;13.832;2023-04-07T05:38:20;98146.44;;;4.09;61.89
12471;BME280;36499;46.484;13.832;2023-04-07T05:40:48;98141.75;;;4.20;61.15
12471;BME280;36499;46.484;13.832;2023-04-07T05:43:15;98138.44;;;4.16;61.36
12471;BME280;36499;46.484;13.832;2023-04-07T05:45:42;98147.69;;;4.23;62.02
12471;BME280;36499;46.484;13.832;2023-04-07T05:48:11;98146.94;;;4.20;61.19
12471;BME280;36499;46.484;13.832;2023-04-07T05:50:38;98148.81;;;4.15;61.77
12471;BME280;36499;46.484;13.832;2023-04-07T05:53:05;98151.91;;;4.26;61.24
12471;BME280;36499;46.484;13.832;2023-04-07T05:55:32;98142.38;;;4.28;61.95
12471;BME280;36499;46.484;13.832;2023-04-07T05:57:59;98138.78;;;4.32;61.56
12471;BME280;36499;46.484;13.832;2023-04-07T06:00:27;98142.00;;;4.39;61.14
12471;BME280;36499;46.484;13.832;2023-04-07T06:02:54;98137.44;;;4.47;61.71
12471;BME280;36499;46.484;13.832;2023-04-07T06:05:22;98133.66;;;4.57;61.61
12471;BME280;36499;46.484;13.832;2023-04-07T06:07:49;98135.19;;;4.62;61.12
12471;BME280;36499;46.484;13.832;2023-04-07T06:10:16;98127.94;;;4.72;61.07
12471;BME280;36499;46.484;13.832;2023-04-07T06:12:44;98141.53;;;4.78;60.99
12471;BME280;36499;46.484;13.832;2023-04-07T06:15:11;98138.47;;;4.92;60.97
12471;BME280;36499;46.484;13.832;2023-04-07T06:17:38;98136.28;;;5.05;60.49
12471;BME280;36499;46.484;13.832;2023-04-07T06:20:07;98136.91;;;5.11;58.87
12471;BME280;36499;46.484;13.832;2023-04-07T06:22:35;98133.28;;;5.17;59.07
12471;BME280;36499;46.484;13.832;2023-04-07T06:25:03;98135.78;;;5.18;58.29
12471;BME280;36499;46.484;13.832;2023-04-07T06:27:30;98132.06;;;5.25;59.20
12471;BME280;36499;46.484;13.832;2023-04-07T06:29:58;98131.06;;;5.29;59.28
12471;BME280;36499;46.484;13.832;2023-04-07T06:32:25;98136.75;;;5.39;58.81
12471;BME280;36499;46.484;13.832;2023-04-07T06:34:53;98132.19;;;5.46;57.82
12471;BME280;36499;46.484;13.832;2023-04-07T06:37:21;98126.84;;;5.50;58.24
12471;BME280;36499;46.484;13.832;2023-04-07T06:39:51;98122.13;;;5.61;57.29
12471;BME280;36499;46.484;13.832;2023-04-07T06:42:18;98125.56;;;5.62;57.64
12471;BME280;36499;46.484;13.832;2023-04-07T06:44:45;98121.78;;;5.70;57.59
12471;BME280;36499;46.484;13.832;2023-04-07T06:47:12;98115.28;;;5.82;57.44
12471;BME280;36499;46.484;13.832;2023-04-07T06:49:40;98115.13;;;5.87;56.82
12471;BME280;36499;46.484;13.832;2023-04-07T06:52:07;98108.78;;;5.94;57.00
12471;BME280;36499;46.484;13.832;2023-04-07T06:54:34;98116.22;;;6.03;56.92
12471;BME280;36499;46.484;13.832;2023-04-07T06:57:03;98109.03;;;6.09;58.18
12471;BME280;36499;46.484;13.832;2023-04-07T06:59:31;98111.00;;;6.24;56.91
12471;BME280;36499;46.484;13.832;2023-04-07T07:01:58;98104.28;;;6.41;55.96
12471;BME280;36499;46.484;13.832;2023-04-07T07:04:25;98109.34;;;6.44;55.83
12471;BME280;36499;46.484;13.832;2023-04-07T07:06:53;98109.31;;;6.65;55.36
12471;BME280;36499;46.484;13.832;2023-04-07T07:09:20;98103.31;;;6.43;55.63
12471;BME280;36499;46.484;13.832;2023-04-07T07:11:48;98107.34;;;6.70;55.24
12471;BME280;36499;46.484;13.832;2023-04-07T07:14:17;98108.09;;;6.93;54.13
12471;BME280;36499;46.484;13.832;2023-04-07T07:16:44;98101.88;;;6.97;54.12
12471;BME280;36499;46.484;13.832;2023-04-07T07:19:11;98104.38;;;7.18;53.39
12471;BME280;36499;46.484;13.832;2023-04-07T07:21:39;98096.66;;;7.36;52.83
12471;BME280;36499;46.484;13.832;2023-04-07T07:24:06;98101.16;;;7.51;52.07
12471;BME280;36499;46.484;13.832;2023-04-07T07:26:33;98097.81;;;7.67;52.21
12471;BME280;36499;46.484;13.832;2023-04-07T07:29:01;98102.91;;;7.69;52.00
12471;BME280;36499;46.484;13.832;2023-04-07T07:31:29;98107.03;;;7.92;51.73
12471;BME280;36499;46.484;13.832;2023-04-07T07:33:57;98105.31;;;8.09;51.21
12471;BME280;36499;46.484;13.832;2023-04-07T07:36:24;98094.09;;;8.26;50.84
12471;BME280;36499;46.484;13.832;2023-04-07T07:38:51;98090.78;;;8.41;50.29
12471;BME280;36499;46.484;13.832;2023-04-07T07:41:18;98093.38;;;8.58;50.04
12471;BME280;36499;46.484;13.832;2023-04-07T07:43:45;98086.63;;;8.72;49.57
12471;BME280;36499;46.484;13.832;2023-04-07T07:46:12;98084.94;;;8.88;49.33
12471;BME280;36499;46.484;13.832;2023-04-07T07:48:41;98085.75;;;9.05;48.29
12471;BME280;36499;46.484;13.832;2023-04-07T07:51:08;98080.31;;;9.26;48.19
12471;BME280;36499;46.484;13.832;2023-04-07T07:53:36;98076.00;;;9.42;47.59
12471;BME280;36499;46.484;13.832;2023-04-07T07:56:03;98073.22;;;9.60;47.00
12471;BME280;36499;46.484;13.832;2023-04-07T07:58:30;98065.75;;;9.70;46.81
12471;BME280;36499;46.484;13.832;2023-04-07T08:00:57;98064.72;;;9.88;47.11
12471;BME280;36499;46.484;13.832;2023-04-07T08:03:25;98064.34;;;10.10;45.30
12471;BME280;36499;46.484;13.832;2023-04-07T08:05:53;98051.94;;;10.15;45.38
12471;BME280;36499;46.484;13.832;2023-04-07T08:08:20;98060.28;;;10.36;45.40
12471;BME280;36499;46.484;13.832;2023-04-07T08:10:48;98061.34;;;10.47;45.27
12471;BME280;36499;46.484;13.832;2023-04-07T08:13:15;98054.78;;;10.70;44.50
12471;BME280;36499;46.484;13.832;2023-04-07T08:15:42;98047.97;;;10.82;43.47
12471;BME280;36499;46.484;13.832;2023-04-07T08:18:09;98050.03;;;11.05;43.44
12471;BME280;36499;46.484;13.832;2023-04-07T08:20:36;98045.47;;;11.23;43.27
12471;BME280;36499;46.484;13.832;2023-04-07T08:23:05;98040.50;;;11.46;42.85
12471;BME280;36499;46.484;13.832;2023-04-07T08:25:33;98042.53;;;11.55;43.00
12471;BME280;36499;46.484;13.832;2023-04-07T08:28:00;98039.81;;;11.57;43.00
12471;BME280;36499;46.484;13.832;2023-04-07T08:30:28;98032.44;;;11.64;42.25
12471;BME280;36499;46.484;13.832;2023-04-07T08:32:55;98030.50;;;11.94;42.59
12471;BME280;36499;46.484;13.832;2023-04-07T08:35:22;98032.38;;;11.92;41.26
12471;BME280;36499;46.484;13.832;2023-04-07T08:37:49;98038.97;;;12.24;41.59
12471;BME280;36499;46.484;13.832;2023-04-07T08:40:18;98031.25;;;12.48;40.17
12471;BME280;36499;46.484;13.832;2023-04-07T08:42:47;98033.63;;;12.13;41.06
12471;BME280;36499;46.484;13.832;2023-04-07T08:45:16;98037.38;;;12.61;40.84
12471;BME280;36499;46.484;13.832;2023-04-07T08:47:46;98022.94;;;12.81;41.01
12471;BME280;36499;46.484;13.832;2023-04-07T08:50:16;98021.44;;;13.02;40.02
12471;BME280;36499;46.484;13.832;2023-04-07T08:52:50;98018.59;;;13.05;39.13
12471;BME280;36499;46.484;13.832;2023-04-07T08:55:21;98014.13;;;12.82;38.97
12471;BME280;36499;46.484;13.832;2023-04-07T08:57:49;98014.09;;;13.32;38.94
12471;BME280;36499;46.484;13.832;2023-04-07T09:00:18;98005.66;;;13.53;38.20
12471;BME280;36499;46.484;13.832;2023-04-07T09:02:46;98008.34;;;13.64;37.84
12471;BME280;36499;46.484;13.832;2023-04-07T09:05:16;97998.66;;;13.77;37.77
12471;BME280;36499;46.484;13.832;2023-04-07T09:07:43;98005.19;;;13.95;37.20
12471;BME280;36499;46.484;13.832;2023-04-07T09:10:11;97990.09;;;14.10;37.27
12471;BME280;36499;46.484;13.832;2023-04-07T09:12:39;97992.59;;;14.35;38.28
12471;BME280;36499;46.484;13.832;2023-04-07T09:15:07;97987.34;;;14.46;36.95
12471;BME280;36499;46.484;13.832;2023-04-07T09:17:35;97983.72;;;14.82;37.43
12471;BME280;36499;46.484;13.832;2023-04-07T09:20:03;97976.44;;;15.08;35.88
12471;BME280;36499;46.484;13.832;2023-04-07T09:22:35;97974.16;;;15.14;35.53
12471;BME280;36499;46.484;13.832;2023-04-07T09:25:14;97971.72;;;15.45;35.40
12471;BME280;36499;46.484;13.832;2023-04-07T09:27:57;97961.31;;;15.65;34.19
12471;BME280;36499;46.484;13.832;2023-04-07T09:30:25;97956.50;;;15.81;35.04
12471;BME280;36499;46.484;13.832;2023-04-07T09:32:53;97948.13;;;16.08;34.80
12471;BME280;36499;46.484;13.832;2023-04-07T09:35:20;97949.81;;;16.30;34.29
12471;BME280;36499;46.484;13.832;2023-04-07T09:38:02;97944.22;;;16.65;34.34
12471;BME280;36499;46.484;13.832;2023-04-07T09:40:29;97946.31;;;16.92;33.58
12471;BME280;36499;46.484;13.832;2023-04-07T09:42:58;97940.28;;;17.10;32.04
12471;BME280;36499;46.484;13.832;2023-04-07T09:45:27;97938.53;;;17.30;31.18
12471;BME280;36499;46.484;13.832;2023-04-07T09:47:54;97935.28;;;17.07;31.71
12471;BME280;36499;46.484;13.832;2023-04-07T09:50:32;97924.34;;;16.40;31.79
12471;BME280;36499;46.484;13.832;2023-04-07T09:53:00;97924.78;;;16.87;31.69
12471;BME280;36499;46.484;13.832;2023-04-07T09:55:30;97916.00;;;17.16;31.73
12471;BME280;36499;46.484;13.832;2023-04-07T09:58:00;97908.94;;;17.26;31.35
12471;BME280;36499;46.484;13.832;2023-04-07T10:00:28;97911.53;;;17.57;30.19
12471;BME280;36499;46.484;13.832;2023-04-07T10:02:55;97892.50;;;17.82;29.79
12471;BME280;36499;46.484;13.832;2023-04-07T10:05:24;97894.88;;;17.95;26.13
12471;BME280;36499;46.484;13.832;2023-04-07T10:07:51;97891.09;;;18.16;26.65
12471;BME280;36499;46.484;13.832;2023-04-07T10:10:19;97885.13;;;18.14;26.78
12471;BME280;36499;46.484;13.832;2023-04-07T10:12:48;97872.13;;;18.31;27.35
12471;BME280;36499;46.484;13.832;2023-04-07T10:15:17;97879.34;;;18.38;26.70
12471;BME280;36499;46.484;13.832;2023-04-07T10:17:46;97878.22;;;18.50;26.98
12471;BME280;36499;46.484;13.832;2023-04-07T10:20:17;97878.38;;;18.58;26.20
12471;BME280;36499;46.484;13.832;2023-04-07T10:22:47;97867.75;;;18.68;25.93
12471;BME280;36499;46.484;13.832;2023-04-07T10:25:20;97867.38;;;18.90;26.27
12471;BME280;36499;46.484;13.832;2023-04-07T10:27:54;97868.19;;;19.18;25.74
12471;BME280;36499;46.484;13.832;2023-04-07T10:30:26;97864.72;;;19.17;23.72
12471;BME280;36499;46.484;13.832;2023-04-07T10:32:54;97860.19;;;18.83;24.52
12471;BME280;36499;46.484;13.832;2023-04-07T10:35:22;97857.28;;;19.03;24.70
12471;BME280;36499;46.484;13.832;2023-04-07T10:38:09;97861.56;;;18.87;24.43
12471;BME280;36499;46.484;13.832;2023-04-07T10:40:39;97856.41;;;19.12;23.61
12471;BME280;36499;46.484;13.832;2023-04-07T10:43:08;97853.94;;;19.29;23.08
12471;BME280;36499;46.484;13.832;2023-04-07T10:45:54;97850.06;;;19.50;23.39
12471;BME280;36499;46.484;13.832;2023-04-07T10:48:24;97847.59;;;19.75;22.66
12471;BME280;36499;46.484;13.832;2023-04-07T10:51:16;97842.63;;;19.89;22.32
12471;BME280;36499;46.484;13.832;2023-04-07T10:54:17;97841.44;;;20.09;21.51
12471;BME280;36499;46.484;13.832;2023-04-07T10:57:08;97833.22;;;20.21;21.94
12471;BME280;36499;46.484;13.832;2023-04-07T10:59:39;97843.69;;;20.22;21.97
12471;BME280;36499;46.484;13.832;2023-04-07T11:02:37;97827.44;;;20.43;21.48
12471;BME280;36499;46.484;13.832;2023-04-07T11:05:05;97819.59;;;20.67;22.30
12471;BME280;36499;46.484;13.832;2023-04-07T11:10:20;97816.66;;;21.20;21.68
12471;BME280;36499;46.484;13.832;2023-04-07T11:12:59;97824.16;;;21.25;20.76
12471;BME280;36499;46.484;13.832;2023-04-07T11:15:27;97824.66;;;21.28;19.99
12471;BME280;36499;46.484;13.832;2023-04-07T11:18:14;97810.09;;;20.56;19.62
12471;BME280;36499;46.484;13.832;2023-04-07T11:20:51;97814.53;;;20.48;20.25
12471;BME280;36499;46.484;13.832;2023-04-07T11:23:21;97815.03;;;20.77;20.36
12471;BME280;36499;46.484;13.832;2023-04-07T11:25:52;97813.78;;;20.64;20.21
12471;BME280;36499;46.484;13.832;2023-04-07T11:28:19;97816.09;;;20.33;20.13
12471;BME280;36499;46.484;13.832;2023-04-07T15:53:21;92518.34;;;18.64;42.17
12471;BME280;36499;46.484;13.832;2023-04-07T15:55:48;92507.53;;;18.94;34.60
12471;BME280;36499;46.484;13.832;2023-04-07T15:58:16;92519.72;;;19.19;31.32
12471;BME280;36499;46.484;13.832;2023-04-07T16:02:02;92509.22;;;19.38;28.74
12471;BME280;36499;46.484;13.832;2023-04-07T16:04:29;92514.72;;;19.46;27.50
12471;BME280;36499;46.484;13.832;2023-04-07T16:10:38;92529.69;;;19.56;27.85
12471;BME280;36499;46.484;13.832;2023-04-07T16:13:06;92529.41;;;19.57;27.84
12471;BME280;36499;46.484;13.832;2023-04-07T16:16:58;92531.84;;;19.54;27.81
12471;BME280;36499;46.484;13.832;2023-04-07T16:19:25;92534.22;;;19.55;27.70
12471;BME280;36499;46.484;13.832;2023-04-07T16:25:46;92547.81;;;15.49;29.84
12471;BME280;36499;46.484;13.832;2023-04-07T16:28:13;92568.28;;;14.20;32.49
12471;BME280;36499;46.484;13.832;2023-04-07T16:30:41;92572.44;;;13.45;33.99
12471;BME280;36499;46.484;13.832;2023-04-07T16:33:08;92578.50;;;12.96;34.94
12471;BME280;36499;46.484;13.832;2023-04-07T16:35:35;92594.50;;;12.49;35.43
12471;BME280;36499;46.484;13.832;2023-04-07T16:38:03;92595.03;;;12.35;36.19
12471;BME280;36499;46.484;13.832;2023-04-07T16:40:31;92591.03;;;12.16;36.25
12471;BME280;36499;46.484;13.832;2023-04-07T16:42:59;92595.34;;;12.10;36.72
12471;BME280;36499;46.484;13.832;2023-04-07T16:45:26;92597.28;;;12.15;37.88
12471;BME280;36499;46.484;13.832;2023-04-07T16:47:54;92610.34;;;12.15;37.55
12471;BME280;36499;46.484;13.832;2023-04-07T16:50:21;92603.38;;;11.92;36.84
12471;BME280;36499;46.484;13.832;2023-04-07T16:52:48;92605.44;;;11.90;37.63
12471;BME280;36499;46.484;13.832;2023-04-07T16:55:15;92608.06;;;11.90;37.08
12471;BME280;36499;46.484;13.832;2023-04-07T16:57:42;92616.06;;;11.72;37.61
12471;BME280;36499;46.484;13.832;2023-04-07T17:00:12;92618.88;;;11.82;37.79
12471;BME280;36499;46.484;13.832;2023-04-07T17:02:39;92627.72;;;11.81;37.98
12471;BME280;36499;46.484;13.832;2023-04-07T17:05:07;92631.34;;;11.68;38.86
12471;BME280;36499;46.484;13.832;2023-04-07T17:07:34;92633.53;;;11.60;38.38
12471;BME280;36499;46.484;13.832;2023-04-07T17:10:02;92637.16;;;11.59;39.19
12471;BME280;36499;46.484;13.832;2023-04-07T17:12:29;92640.72;;;11.41;39.15
12471;BME280;36499;46.484;13.832;2023-04-07T17:14:56;92647.84;;;11.45;38.99
12471;BME280;36499;46.484;13.832;2023-04-07T17:17:24;92648.06;;;11.44;39.73
12471;BME280;36499;46.484;13.832;2023-04-07T17:19:51;92657.59;;;11.38;39.80
12471;BME280;36499;46.484;13.832;2023-04-07T17:22:18;92666.91;;;11.34;39.80
12471;BME280;36499;46.484;13.832;2023-04-07T17:24:45;92659.88;;;11.23;40.18
12471;BME280;36499;46.484;13.832;2023-04-07T17:27:12;92670.97;;;11.19;40.53
12471;BME280;36499;46.484;13.832;2023-04-07T17:29:39;92669.63;;;11.28;40.33
12471;BME280;36499;46.484;13.832;2023-04-07T17:32:06;92677.81;;;11.31;40.56
12471;BME280;36499;46.484;13.832;2023-04-07T17:34:35;92681.31;;;11.25;40.40
12471;BME280;36499;46.484;13.832;2023-04-07T17:37:02;92684.41;;;11.22;40.75
12471;BME280;36499;46.484;13.832;2023-04-07T17:39:29;92681.84;;;11.04;41.31